Time;durP1;ratioP1;P1;durP2;ratioP2;P2;SDS_P1;SDS_P2;PMS_P1;PMS_P2;Temp;Humidity;BMP_temperature;BMP_pressure;BME280_temperature;BME280_humidity;BME280_pressure;Samples;Min_cycle;Max_cycle;Signal;HPM_P1;HPM_P2
2022/10/18 00:01:27;;;;;;;53.20;30.25;;;12.70;99.90;;;;;;5079421;28;20024;-90
2022/10/18 00:03:53;;;;;;;49.95;28.25;;;12.70;99.90;;;;;;5097587;28;20020;-90
2022/10/18 00:06:18;;;;;;;66.32;29.50;;;12.70;99.90;;;;;;5076509;28;20043;-91
2022/10/18 00:08:44;;;;;;;47.75;28.13;;;12.70;99.90;;;;;;5076510;28;20036;-90
2022/10/18 00:11:10;;;;;;;56.05;30.05;;;12.70;99.90;;;;;;5061184;28;20039;-89
2022/10/18 00:13:36;;;;;;;56.50;29.42;;;12.60;99.90;;;;;;5069273;28;20036;-90
2022/10/18 00:16:04;;;;;;;50.75;29.00;;;12.60;99.90;;;;;;5060280;28;20020;-90
2022/10/18 00:18:30;;;;;;;59.78;28.60;;;12.60;99.90;;;;;;5070023;28;20032;-90
2022/10/18 00:21:08;;;;;;;52.33;27.25;;;12.70;99.90;;;;;;5119817;27;20029;-89
2022/10/18 00:23:34;;;;;;;50.83;25.00;;;12.70;99.90;;;;;;5071846;28;20412;-90
2022/10/18 00:26:05;;;;;;;50.50;24.58;;;12.80;99.90;;;;;;5087044;28;20028;-89
2022/10/18 00:28:32;;;;;;;53.50;25.33;;;12.80;99.90;;;;;;5054729;28;20100;-90
2022/10/18 00:31:13;;;;;;;51.95;26.10;;;12.90;99.90;;;;;;5068420;28;20039;-89
2022/10/18 00:33:41;;;;;;;63.13;30.88;;;13.00;99.90;;;;;;5075763;28;20029;-89
2022/10/18 00:36:07;;;;;;;63.42;31.38;;;13.20;99.90;;;;;;5076938;28;20028;-89
2022/10/18 00:38:33;;;;;;;56.90;28.83;;;13.20;99.90;;;;;;5060740;28;20087;-89
2022/10/18 00:40:58;;;;;;;53.33;27.77;;;13.30;99.90;;;;;;5078124;28;20032;-90
2022/10/18 00:43:24;;;;;;;55.67;28.65;;;13.40;99.90;;;;;;5065745;28;20039;-89
2022/10/18 00:45:50;;;;;;;48.78;24.65;;;13.50;99.90;;;;;;5077089;28;20029;-89
2022/10/18 00:48:18;;;;;;;48.42;25.40;;;13.60;99.90;;;;;;5059849;28;20031;-89
2022/10/18 00:50:45;;;;;;;41.83;22.80;;;13.60;99.90;;;;;;5059293;28;20062;-90
2022/10/18 00:53:17;;;;;;;43.30;21.27;;;13.70;99.90;;;;;;5077394;28;20039;-90
2022/10/18 00:55:43;;;;;;;34.25;19.70;;;13.70;99.90;;;;;;5077526;28;20032;-90
2022/10/18 00:58:12;;;;;;;38.70;22.05;;;13.80;99.90;;;;;;5061610;28;20030;-90
2022/10/18 01:00:38;;;;;;;41.85;21.20;;;13.80;99.90;;;;;;5063361;28;20017;-89
2022/10/18 02:00:15;;;;;;;16.70;8.48;;;14.70;99.90;;;;;;5061333;28;20024;-89
2022/10/18 02:06:57;;;;;;;20.40;8.32;;;14.80;99.90;;;;;;5073814;28;20043;-89
2022/10/18 02:09:38;;;;;;;15.20;8.65;;;14.80;99.90;;;;;;5066344;28;20028;-89
2022/10/18 02:12:06;;;;;;;18.90;9.75;;;14.80;99.90;;;;;;5076771;28;20036;-89
2022/10/18 02:14:33;;;;;;;14.15;8.55;;;14.80;99.90;;;;;;5071999;28;20127;-89
2022/10/18 02:17:04;;;;;;;23.35;9.10;;;14.80;99.90;;;;;;5060391;28;20043;-89
2022/10/18 02:23:21;;;;;;;21.75;9.02;;;14.80;99.90;;;;;;5065144;28;20082;-89
2022/10/18 02:25:47;;;;;;;16.55;8.50;;;14.80;99.90;;;;;;5074873;28;20116;-89
2022/10/18 02:28:13;;;;;;;18.95;9.13;;;14.80;99.90;;;;;;5082083;28;20229;-89
2022/10/18 02:31:17;;;;;;;14.98;9.13;;;14.70;99.90;;;;;;5075958;28;20033;-89
2022/10/18 02:33:48;;;;;;;20.15;9.57;;;14.70;99.90;;;;;;5081126;28;20031;-89
2022/10/18 02:36:21;;;;;;;17.33;9.20;;;14.70;99.90;;;;;;5065723;28;20081;-89
2022/10/18 02:38:49;;;;;;;19.63;9.82;;;14.70;99.90;;;;;;5081393;28;20028;-90
2022/10/18 02:41:22;;;;;;;20.17;8.88;;;14.70;99.90;;;;;;5054516;28;20389;-89
2022/10/18 02:43:48;;;;;;;16.25;10.00;;;14.70;99.90;;;;;;5085394;28;20029;-89
2022/10/18 02:46:13;;;;;;;28.92;10.35;;;14.70;99.90;;;;;;5056630;28;20037;-90
2022/10/18 02:48:39;;;;;;;20.08;10.25;;;14.60;99.90;;;;;;5102609;28;20055;-89
2022/10/18 02:51:05;;;;;;;22.33;10.52;;;14.60;99.90;;;;;;5075376;28;20040;-89
2022/10/18 02:53:30;;;;;;;25.15;11.30;;;14.60;99.90;;;;;;5085896;28;20437;-89
2022/10/18 02:55:56;;;;;;;19.92;11.48;;;14.50;99.90;;;;;;5061199;28;20024;-89
2022/10/18 02:58:22;;;;;;;24.40;12.23;;;14.50;99.90;;;;;;5105110;27;20106;-89
2022/10/18 03:00:54;;;;;;;20.35;12.32;;;14.40;99.90;;;;;;5068304;28;20039;-90
2022/10/18 03:03:19;;;;;;;30.70;13.50;;;14.40;99.90;;;;;;5071942;28;20074;-90
2022/10/18 03:05:48;;;;;;;24.48;14.30;;;14.40;99.90;;;;;;5120082;27;20032;-90
2022/10/18 03:08:14;;;;;;;20.20;13.48;;;14.40;99.90;;;;;;5074298;28;20036;-89
2022/10/18 03:10:43;;;;;;;22.75;13.48;;;14.50;99.90;;;;;;5086936;28;20036;-89
2022/10/18 03:13:09;;;;;;;24.25;13.35;;;14.50;99.90;;;;;;5060123;28;20028;-90
2022/10/18 03:15:34;;;;;;;28.52;14.25;;;14.50;99.90;;;;;;5061235;28;20546;-90
2022/10/18 03:18:00;;;;;;;26.15;13.02;;;14.50;99.90;;;;;;5062469;28;20028;-90
2022/10/18 03:20:26;;;;;;;24.52;12.68;;;14.50;99.90;;;;;;5067341;28;20124;-90
2022/10/18 03:22:51;;;;;;;31.92;11.05;;;14.50;99.90;;;;;;5095094;28;20032;-89
2022/10/18 03:25:17;;;;;;;22.52;10.38;;;14.50;99.90;;;;;;5075676;28;20032;-90
2022/10/18 03:27:43;;;;;;;21.80;10.48;;;14.40;99.90;;;;;;5076517;28;20036;-89
2022/10/18 03:30:10;;;;;;;22.50;10.85;;;14.40;99.90;;;;;;5077878;28;20036;-89
2022/10/18 03:32:37;;;;;;;23.55;11.07;;;14.40;99.90;;;;;;5061011;28;20040;-90
2022/10/18 03:35:04;;;;;;;22.73;11.50;;;14.40;99.90;;;;;;5078371;28;20028;-89
2022/10/18 03:37:30;;;;;;;16.10;10.45;;;14.30;99.90;;;;;;5082021;28;20029;-90
2022/10/18 03:39:56;;;;;;;23.80;11.65;;;14.30;99.90;;;;;;5078883;28;20054;-90
2022/10/18 03:42:21;;;;;;;18.20;11.02;;;14.30;99.90;;;;;;5074730;28;20028;-90
2022/10/18 03:44:47;;;;;;;22.77;9.90;;;14.30;99.90;;;;;;5094817;28;20127;-89
2022/10/18 03:47:13;;;;;;;15.65;8.77;;;14.30;99.90;;;;;;5060859;28;20024;-89
2022/10/18 03:49:38;;;;;;;29.27;9.50;;;14.30;99.90;;;;;;5077363;28;20610;-89
2022/10/18 03:52:04;;;;;;;17.88;10.20;;;14.30;99.90;;;;;;5061676;28;20028;-89
2022/10/18 03:54:30;;;;;;;15.93;8.95;;;14.30;99.90;;;;;;5065251;28;20035;-89
2022/10/18 03:56:56;;;;;;;21.85;9.43;;;14.30;99.90;;;;;;5080174;28;20028;-90
2022/10/18 03:59:21;;;;;;;13.80;9.20;;;14.30;99.90;;;;;;5075190;28;20032;-89
2022/10/18 04:01:48;;;;;;;23.42;10.90;;;14.30;99.90;;;;;;5077629;28;20029;-89
2022/10/18 04:04:13;;;;;;;20.85;10.88;;;14.30;99.90;;;;;;5077559;28;20064;-89
2022/10/18 04:06:39;;;;;;;18.15;9.07;;;14.30;99.90;;;;;;5077899;28;20601;-89
2022/10/18 04:09:05;;;;;;;18.80;8.20;;;14.30;99.90;;;;;;5078140;28;20099;-89
2022/10/18 04:11:31;;;;;;;20.38;9.57;;;14.20;99.90;;;;;;5064520;28;20032;-90
2022/10/18 04:13:57;;;;;;;21.23;8.38;;;14.10;99.90;;;;;;5080657;28;20028;-89
2022/10/18 04:16:23;;;;;;;22.73;10.73;;;14.00;99.90;;;;;;5080422;28;20055;-89
2022/10/18 04:18:49;;;;;;;22.25;9.95;;;13.80;99.90;;;;;;5059380;28;20017;-89
2022/10/18 04:21:14;;;;;;;14.23;9.60;;;13.80;99.90;;;;;;5081024;28;20390;-89
2022/10/18 04:23:40;;;;;;;17.30;8.60;;;13.60;99.90;;;;;;5076120;28;20070;-90
2022/10/18 04:26:06;;;;;;;22.23;11.38;;;13.60;99.90;;;;;;5073734;28;20077;-89
2022/10/18 04:28:33;;;;;;;27.65;11.95;;;13.60;99.90;;;;;;5079477;28;20028;-90
2022/10/18 04:30:59;;;;;;;25.08;12.30;;;13.60;99.90;;;;;;5056946;28;20126;-89
2022/10/18 04:33:25;;;;;;;20.60;12.27;;;13.60;99.90;;;;;;5063287;28;20036;-89
2022/10/18 04:35:52;;;;;;;24.08;14.23;;;13.70;99.90;;;;;;5075666;28;20893;-90
2022/10/18 04:38:18;;;;;;;18.73;11.68;;;13.80;99.90;;;;;;5063891;28;20066;-89
2022/10/18 04:40:44;;;;;;;17.50;13.15;;;13.80;99.90;;;;;;5074945;28;20036;-89
2022/10/18 04:43:10;;;;;;;27.98;12.95;;;13.80;99.90;;;;;;5092034;28;20020;-89
2022/10/18 04:45:36;;;;;;;22.65;11.23;;;13.80;99.90;;;;;;5062051;28;20534;-89
2022/10/18 04:48:01;;;;;;;23.55;12.90;;;13.70;99.90;;;;;;5066484;28;20111;-89
2022/10/18 04:50:27;;;;;;;33.78;12.57;;;13.70;99.90;;;;;;5062562;28;20028;-89
2022/10/18 04:52:55;;;;;;;23.08;13.00;;;13.70;99.90;;;;;;5076050;28;20035;-89
2022/10/18 04:55:21;;;;;;;26.33;12.95;;;13.60;99.90;;;;;;5081165;28;20024;-90
2022/10/18 04:57:46;;;;;;;22.88;12.85;;;13.60;99.90;;;;;;5074427;28;20081;-89
2022/10/18 05:00:12;;;;;;;23.23;11.80;;;13.50;99.90;;;;;;5091915;28;20081;-90
2022/10/18 05:02:38;;;;;;;18.55;11.00;;;13.40;99.90;;;;;;5061327;28;20118;-89
2022/10/18 05:05:04;;;;;;;17.67;10.50;;;13.30;99.90;;;;;;5108575;28;20062;-89
2022/10/18 05:07:30;;;;;;;23.00;11.88;;;13.20;99.90;;;;;;5063318;28;20031;-90
2022/10/18 05:09:55;;;;;;;19.73;11.65;;;13.10;99.90;;;;;;5073544;28;20028;-89
2022/10/18 05:12:21;;;;;;;22.42;12.25;;;12.90;99.90;;;;;;5074639;28;20115;-89
2022/10/18 05:14:47;;;;;;;26.02;13.75;;;12.80;99.90;;;;;;5071882;28;20059;-89
2022/10/18 05:17:56;;;;;;;25.42;12.55;;;12.80;99.90;;;;;;5055408;28;20028;-89
2022/10/18 05:20:22;;;;;;;23.27;11.55;;;13.00;99.90;;;;;;5065684;28;20376;-89
2022/10/18 05:22:47;;;;;;;21.58;10.80;;;13.10;99.90;;;;;;5069674;28;20036;-90
2022/10/18 05:25:16;;;;;;;23.35;11.88;;;13.20;99.90;;;;;;5058646;28;20020;-89
2022/10/18 05:27:42;;;;;;;25.55;10.15;;;13.20;99.90;;;;;;5075063;28;20095;-89
2022/10/18 05:30:08;;;;;;;16.08;9.00;;;13.20;99.90;;;;;;5059638;28;20431;-89
2022/10/18 05:32:33;;;;;;;15.32;8.32;;;13.10;99.90;;;;;;5059294;28;20082;-89
2022/10/18 05:34:59;;;;;;;13.20;8.45;;;13.00;99.90;;;;;;5076677;28;20040;-89
2022/10/18 05:37:25;;;;;;;17.23;7.78;;;13.00;99.90;;;;;;5065139;28;20460;-89
2022/10/18 05:39:51;;;;;;;20.17;10.18;;;12.90;99.90;;;;;;5076379;28;20527;-89
2022/10/18 05:42:16;;;;;;;20.73;8.35;;;12.90;99.90;;;;;;5074304;28;20028;-90
2022/10/18 05:44:42;;;;;;;22.42;10.43;;;12.80;99.90;;;;;;5074806;28;20025;-89
2022/10/18 05:48:06;;;;;;;14.30;8.50;;;12.90;99.90;;;;;;5076418;28;20111;-89
2022/10/18 05:50:32;;;;;;;14.90;9.48;;;12.90;99.90;;;;;;5052921;28;20029;-89
2022/10/18 05:53:07;;;;;;;20.95;10.40;;;13.10;99.90;;;;;;5058645;28;20833;-89
2022/10/18 05:55:32;;;;;;;20.05;9.45;;;13.30;99.90;;;;;;5061454;28;20131;-88
2022/10/18 05:57:58;;;;;;;20.10;8.82;;;13.40;99.90;;;;;;5053151;28;20805;-88
2022/10/18 06:00:24;;;;;;;20.83;8.75;;;13.50;99.90;;;;;;5062461;28;20035;-89
2022/10/18 06:02:49;;;;;;;16.33;9.00;;;13.50;99.90;;;;;;5057228;28;20031;-89
2022/10/18 06:05:15;;;;;;;19.88;8.90;;;13.60;99.90;;;;;;5076774;28;20027;-88
2022/10/18 06:07:59;;;;;;;14.18;9.23;;;13.60;99.90;;;;;;5060338;28;20039;-89
2022/10/18 06:10:25;;;;;;;15.32;8.48;;;13.70;99.90;;;;;;5064356;28;20035;-89
2022/10/18 06:12:51;;;;;;;16.38;8.95;;;13.70;99.90;;;;;;5056951;28;20036;-89
2022/10/18 06:15:16;;;;;;;14.30;8.70;;;13.80;99.90;;;;;;5065892;28;20024;-88
2022/10/18 06:17:42;;;;;;;17.10;9.00;;;14.00;99.90;;;;;;5074954;28;20496;-88
2022/10/18 06:20:08;;;;;;;12.13;7.95;;;14.10;99.90;;;;;;5070721;28;20021;-89
2022/10/18 06:22:34;;;;;;;16.42;8.27;;;14.30;99.90;;;;;;5074121;28;20040;-88
2022/10/18 06:24:59;;;;;;;15.02;8.70;;;14.40;99.90;;;;;;5077769;28;20375;-89
2022/10/18 06:27:25;;;;;;;13.43;7.70;;;14.50;99.90;;;;;;5078830;28;20025;-89
2022/10/18 06:29:51;;;;;;;13.15;7.55;;;14.60;99.90;;;;;;5075950;28;21003;-89
2022/10/18 06:32:17;;;;;;;14.05;7.95;;;14.70;99.90;;;;;;5084104;28;20028;-89
2022/10/18 06:34:43;;;;;;;11.43;7.68;;;14.80;99.90;;;;;;5075159;28;20499;-88
2022/10/18 06:37:08;;;;;;;12.95;7.38;;;14.80;99.90;;;;;;5071840;28;20021;-89
2022/10/18 06:39:34;;;;;;;17.23;7.43;;;14.90;99.90;;;;;;5073341;28;20029;-88
2022/10/18 06:42:15;;;;;;;16.10;7.05;;;14.90;99.90;;;;;;5076143;28;20767;-88
2022/10/18 06:44:42;;;;;;;19.70;7.95;;;14.90;99.90;;;;;;5049896;28;20444;-89
2022/10/18 06:47:08;;;;;;;14.82;7.72;;;14.90;99.90;;;;;;5054438;28;20032;-89
2022/10/18 06:49:33;;;;;;;11.52;7.65;;;14.90;99.90;;;;;;5077378;28;20033;-88
2022/10/18 06:51:59;;;;;;;15.85;7.72;;;15.00;99.90;;;;;;5078918;28;20038;-89
2022/10/18 06:54:25;;;;;;;17.38;8.45;;;15.10;99.90;;;;;;5065953;28;20032;-88
2022/10/18 06:56:56;;;;;;;15.15;6.78;;;15.10;99.90;;;;;;5078350;28;20037;-89
2022/10/18 06:59:21;;;;;;;19.40;6.82;;;15.20;99.90;;;;;;5074913;28;20016;-90
2022/10/18 07:01:47;;;;;;;18.92;8.45;;;15.10;99.90;;;;;;5077603;28;20040;-88
2022/10/18 07:04:13;;;;;;;20.08;8.43;;;14.90;99.90;;;;;;5078159;28;20063;-88
2022/10/18 07:06:38;;;;;;;16.88;8.77;;;14.80;99.90;;;;;;5067773;28;20036;-88
2022/10/18 07:09:04;;;;;;;15.48;8.15;;;14.70;99.90;;;;;;5061800;28;20056;-88
2022/10/18 07:11:36;;;;;;;20.25;9.50;;;14.60;99.90;;;;;;5064088;28;20036;-88
2022/10/18 07:14:03;;;;;;;15.32;8.82;;;14.50;99.90;;;;;;5066863;28;20081;-88
2022/10/18 07:16:30;;;;;;;21.27;9.85;;;14.50;99.90;;;;;;5063777;28;20036;-88
2022/10/18 07:18:56;;;;;;;19.13;9.88;;;14.50;99.90;;;;;;5059690;28;20055;-89
2022/10/18 07:21:24;;;;;;;21.70;9.23;;;14.50;99.90;;;;;;5064904;28;20064;-89
2022/10/18 07:23:50;;;;;;;20.33;8.88;;;14.60;99.90;;;;;;5057199;28;20036;-89
2022/10/18 07:26:19;;;;;;;16.30;9.30;;;14.60;99.90;;;;;;5077503;28;20032;-89
2022/10/18 07:28:47;;;;;;;16.60;9.02;;;14.70;99.90;;;;;;5061457;28;20039;-90
2022/10/18 07:31:14;;;;;;;16.23;10.52;;;14.70;99.90;;;;;;5078742;28;20028;-89
2022/10/18 07:33:41;;;;;;;14.48;8.48;;;14.80;99.90;;;;;;5063530;28;20482;-90
2022/10/18 07:36:09;;;;;;;11.40;8.30;;;14.90;99.90;;;;;;5078586;28;20073;-91
2022/10/18 07:38:35;;;;;;;14.40;9.20;;;15.00;99.90;;;;;;5064795;28;20050;-89
2022/10/18 07:41:03;;;;;;;23.35;9.15;;;15.30;99.90;;;;;;5054965;28;20490;-89
2022/10/18 07:43:52;;;;;;;16.38;7.55;;;15.60;99.90;;;;;;5081413;28;20111;-90
2022/10/18 07:46:19;;;;;;;17.58;8.75;;;15.70;99.90;;;;;;5070378;28;20497;-89
2022/10/18 07:48:45;;;;;;;12.10;8.05;;;15.80;99.90;;;;;;5084751;28;20028;-89
2022/10/18 07:51:11;;;;;;;15.32;7.75;;;15.80;99.90;;;;;;5072931;28;20032;-89
2022/10/18 07:53:37;;;;;;;19.38;8.93;;;15.90;99.90;;;;;;5085107;28;20052;-89
2022/10/18 07:56:14;;;;;;;16.92;9.23;;;16.00;99.90;;;;;;5075681;28;20046;-89
2022/10/18 07:58:41;;;;;;;17.00;8.95;;;16.10;99.90;;;;;;5072113;28;20028;-89
2022/10/18 08:01:08;;;;;;;16.30;7.70;;;16.10;99.90;;;;;;5065964;28;20031;-89
2022/10/18 08:03:50;;;;;;;14.15;8.95;;;16.00;99.90;;;;;;5057079;28;20479;-89
2022/10/18 08:06:18;;;;;;;16.80;8.43;;;15.60;99.90;;;;;;5064299;28;20123;-89
2022/10/18 08:16:13;;;;;;;20.77;8.65;;;15.40;99.90;;;;;;5068559;28;20097;-88
2022/10/18 08:18:40;;;;;;;19.83;8.75;;;15.50;99.90;;;;;;5069930;28;20020;-89
2022/10/18 08:21:08;;;;;;;17.20;8.18;;;15.50;99.90;;;;;;5080656;28;20028;-89
2022/10/18 08:23:34;;;;;;;16.60;8.20;;;15.40;99.90;;;;;;5060757;28;20024;-89
2022/10/18 08:26:05;;;;;;;17.90;8.82;;;15.50;99.90;;;;;;5071897;28;20028;-89
2022/10/18 08:28:30;;;;;;;18.45;8.68;;;15.40;99.90;;;;;;5079023;28;20032;-88
2022/10/18 08:30:56;;;;;;;14.77;8.57;;;15.30;99.90;;;;;;5055872;28;20020;-89
2022/10/18 08:33:22;;;;;;;18.25;9.25;;;15.30;99.90;;;;;;5070777;28;20024;-89
2022/10/18 08:35:59;;;;;;;24.30;9.57;;;15.20;99.90;;;;;;5057984;28;20468;-88
2022/10/18 08:38:27;;;;;;;16.17;10.10;;;15.10;99.90;;;;;;5063478;28;20085;-90
2022/10/18 08:40:53;;;;;;;31.15;9.70;;;15.10;99.90;;;;;;5055474;28;20025;-90
2022/10/18 08:43:37;;;;;;;16.75;9.40;;;15.10;99.90;;;;;;5077126;28;20119;-90
2022/10/18 08:46:03;;;;;;;19.88;11.18;;;15.10;99.90;;;;;;5052834;28;20568;-90
2022/10/18 08:48:37;;;;;;;29.38;9.52;;;15.10;99.90;;;;;;5098823;28;20107;-90
2022/10/18 08:51:10;;;;;;;28.23;9.90;;;15.10;99.90;;;;;;5069927;28;20035;-89
2022/10/18 08:53:48;;;;;;;31.30;9.85;;;15.10;99.90;;;;;;5084432;28;20109;-88
2022/10/18 08:56:17;;;;;;;26.45;10.65;;;15.10;99.90;;;;;;5060508;28;20043;-90
2022/10/18 08:58:43;;;;;;;24.50;10.65;;;15.00;99.90;;;;;;5071691;28;20070;-88
2022/10/18 09:01:28;;;;;;;26.73;11.80;;;15.00;99.90;;;;;;5062641;28;20070;-88
2022/10/18 09:04:05;;;;;;;23.45;10.23;;;15.10;99.90;;;;;;5108780;28;20046;-88
2022/10/18 09:06:47;;;;;;;18.35;10.73;;;15.40;99.90;;;;;;5075901;28;20033;-88
2022/10/18 09:09:31;;;;;;;16.67;11.00;;;15.40;99.90;;;;;;5072665;28;20710;-88
2022/10/18 09:12:18;;;;;;;18.70;11.15;;;15.30;99.90;;;;;;5076980;28;20387;-88
2022/10/18 09:14:46;;;;;;;23.50;13.13;;;15.30;99.90;;;;;;5071547;28;20119;-88
2022/10/18 09:17:49;;;;;;;34.08;19.88;;;15.20;99.90;;;;;;5072903;28;20025;-89
2022/10/18 09:20:49;;;;;;;30.77;17.17;;;15.40;99.90;;;;;;5069469;28;20050;-89
2022/10/18 09:23:39;;;;;;;45.80;21.67;;;15.40;99.90;;;;;;5059059;28;20605;-89
2022/10/18 09:26:22;;;;;;;38.17;21.27;;;15.60;99.90;;;;;;5044379;28;20062;-90
2022/10/18 09:29:41;;;;;;;23.58;13.55;;;16.00;99.90;;;;;;5057834;28;20042;-89
2022/10/18 09:32:30;;;;;;;33.80;14.93;;;16.40;99.90;;;;;;5073001;28;20538;-89
2022/10/18 09:35:17;;;;;;;44.15;25.50;;;16.30;99.90;;;;;;5093545;28;20111;-89
2022/10/18 09:37:43;;;;;;;22.70;14.75;;;16.30;99.90;;;;;;5077977;28;20772;-87
2022/10/18 09:40:20;;;;;;;22.60;13.88;;;16.40;99.90;;;;;;5060068;28;20028;-87
2022/10/18 09:43:04;;;;;;;17.48;9.60;;;16.50;99.90;;;;;;5069205;28;20029;-87
2022/10/18 09:45:40;;;;;;;16.30;8.60;;;16.50;99.90;;;;;;5079242;28;20071;-87
2022/10/18 09:48:26;;;;;;;12.40;8.35;;;17.00;99.90;;;;;;5060801;28;20031;-87
2022/10/18 09:51:16;;;;;;;12.98;7.72;;;17.50;99.90;;;;;;5078113;28;20131;-88
2022/10/18 09:54:12;;;;;;;15.30;7.43;;;18.50;99.90;;;;;;5087908;28;20081;-88
2022/10/18 09:56:49;;;;;;;14.52;7.57;;;19.60;99.90;;;;;;5061717;28;20025;-88
2022/10/18 09:59:35;;;;;;;13.35;6.50;;;20.30;99.90;;;;;;5078861;28;20803;-88
2022/10/18 10:02:01;;;;;;;10.55;6.55;;;20.40;99.90;;;;;;5057540;28;20059;-88
2022/10/18 10:04:27;;;;;;;14.32;7.20;;;19.60;99.90;;;;;;5060332;28;20052;-88
2022/10/18 10:06:55;;;;;;;16.58;7.70;;;19.30;99.90;;;;;;5081279;28;20479;-88
2022/10/18 10:09:28;;;;;;;11.48;7.57;;;18.90;99.90;;;;;;5063060;28;20032;-88
2022/10/18 10:11:54;;;;;;;13.57;7.93;;;18.60;99.90;;;;;;5079575;28;20036;-88
2022/10/18 10:14:24;;;;;;;19.23;8.77;;;18.30;99.90;;;;;;5069458;28;20024;-88
2022/10/18 10:17:19;;;;;;;16.05;8.27;;;18.00;99.90;;;;;;5061171;28;20174;-87
2022/10/18 10:20:16;;;;;;;21.40;8.75;;;17.70;99.90;;;;;;5087408;28;20032;-87
2022/10/18 10:22:45;;;;;;;13.88;9.55;;;17.30;99.90;;;;;;5059139;28;20167;-88
2022/10/18 10:25:31;;;;;;;23.35;10.13;;;16.90;99.90;;;;;;5060934;28;20085;-88
2022/10/18 10:28:03;;;;;;;15.45;10.40;;;16.70;99.90;;;;;;5063692;28;20070;-88
2022/10/18 10:30:35;;;;;;;36.47;18.52;;;16.70;99.90;;;;;;5076127;28;20024;-88
2022/10/18 10:33:36;;;;;;;22.05;11.23;;;16.80;99.90;;;;;;5090988;27;20058;-88
2022/10/18 10:36:14;;;;;;;30.38;17.73;;;17.00;99.90;;;;;;5053319;28;20064;-87
2022/10/18 10:38:40;;;;;;;19.60;10.55;;;17.50;99.90;;;;;;5078579;28;20039;-88
2022/10/18 10:41:23;;;;;;;16.25;9.00;;;17.90;99.90;;;;;;5053944;28;20121;-88
2022/10/18 10:43:49;;;;;;;26.02;10.45;;;18.40;99.90;;;;;;5083724;28;20055;-88
2022/10/18 10:46:17;;;;;;;15.27;9.20;;;19.10;99.90;;;;;;5054118;28;20082;-88
2022/10/18 10:48:58;;;;;;;17.48;10.02;;;19.00;99.90;;;;;;5084715;28;20045;-88
2022/10/18 10:51:37;;;;;;;23.63;11.33;;;19.00;99.90;;;;;;5055386;28;20482;-88
2022/10/18 10:54:19;;;;;;;21.30;9.50;;;18.90;99.90;;;;;;5057998;28;20665;-88
2022/10/18 10:56:58;;;;;;;16.48;9.98;;;18.80;99.90;;;;;;5076611;28;20032;-89
2022/10/18 10:59:26;;;;;;;17.15;10.43;;;18.60;99.90;;;;;;5074186;28;20028;-88
2022/10/18 11:02:31;;;;;;;16.65;10.15;;;18.50;99.90;;;;;;5096010;28;20028;-89
2022/10/18 11:05:20;;;;;;;20.85;9.55;;;18.60;99.90;;;;;;5066785;28;20016;-88
2022/10/18 11:07:46;;;;;;;14.75;9.82;;;18.70;99.90;;;;;;5061658;28;20122;-88
2022/10/18 11:10:21;;;;;;;15.30;9.73;;;18.80;99.90;;;;;;5079520;28;20122;-88
2022/10/18 11:13:17;;;;;;;23.90;10.15;;;18.40;99.90;;;;;;5057385;28;20479;-88
2022/10/18 11:15:47;;;;;;;20.13;10.88;;;18.00;99.90;;;;;;5057580;28;20853;-88
2022/10/18 11:18:16;;;;;;;16.45;9.70;;;17.80;99.90;;;;;;5049223;28;20056;-88
2022/10/18 11:20:50;;;;;;;13.43;9.40;;;17.80;99.90;;;;;;5078423;28;20651;-88
2022/10/18 11:23:17;;;;;;;15.95;10.55;;;17.70;99.90;;;;;;5062220;28;20020;-88
2022/10/18 11:25:48;;;;;;;17.75;10.40;;;17.70;99.90;;;;;;5054615;28;20435;-88
2022/10/18 11:28:35;;;;;;;19.55;10.32;;;17.80;99.90;;;;;;5063381;28;20056;-88
2022/10/18 11:31:40;;;;;;;18.38;11.35;;;17.60;99.90;;;;;;5057463;28;20088;-88
2022/10/18 11:34:27;;;;;;;15.60;10.35;;;17.60;99.90;;;;;;5070699;28;20503;-88
2022/10/18 11:37:06;;;;;;;13.32;10.38;;;17.60;99.90;;;;;;5104036;28;20097;-87
2022/10/18 11:40:09;;;;;;;18.00;10.35;;;17.60;99.90;;;;;;5055079;28;20068;-89
2022/10/18 11:43:04;;;;;;;14.60;9.70;;;17.70;99.90;;;;;;5054384;28;20025;-88
2022/10/18 11:49:41;;;;;;;13.98;9.88;;;18.30;99.90;;;;;;5067218;28;20054;-89
2022/10/18 11:52:51;;;;;;;18.42;10.50;;;18.60;99.90;;;;;;5065438;28;20032;-88
2022/10/18 11:55:20;;;;;;;20.75;10.98;;;18.60;99.90;;;;;;5063730;28;20067;-88
2022/10/18 12:01:51;;;;;;;25.70;17.02;;;18.60;99.90;;;;;;5073904;28;20127;-88
2022/10/18 12:04:22;;;;;;;25.10;18.92;;;18.20;99.90;;;;;;5049763;28;20024;-88
2022/10/18 12:06:51;;;;;;;27.30;18.23;;;17.80;99.90;;;;;;5059898;28;20033;-88
2022/10/18 12:09:34;;;;;;;23.42;18.13;;;17.50;99.90;;;;;;5058903;28;20040;-88
2022/10/18 12:12:11;;;;;;;26.65;19.73;;;17.40;99.90;;;;;;5049404;28;20111;-89
2022/10/18 12:14:52;;;;;;;25.27;18.05;;;17.20;99.90;;;;;;5068133;28;20028;-89
2022/10/18 12:17:30;;;;;;;21.75;16.88;;;17.40;99.90;;;;;;5054175;28;20033;-88
2022/10/18 12:20:20;;;;;;;33.10;22.55;;;17.40;99.90;;;;;;5102512;28;20491;-89
2022/10/18 12:22:58;;;;;;;31.67;21.58;;;17.50;99.90;;;;;;5091582;28;20115;-89
2022/10/18 12:25:24;;;;;;;22.23;17.83;;;17.60;99.90;;;;;;5055853;28;20490;-88
2022/10/18 12:28:26;;;;;;;25.80;18.70;;;17.70;99.90;;;;;;5093838;28;20059;-89
2022/10/18 12:31:04;;;;;;;22.95;17.45;;;17.60;99.90;;;;;;5056062;28;20032;-88
2022/10/18 12:33:36;;;;;;;28.15;18.10;;;17.40;99.90;;;;;;5062802;28;20031;-89
2022/10/18 12:36:31;;;;;;;27.75;17.88;;;17.20;99.90;;;;;;5067136;28;20032;-89
2022/10/18 12:39:05;;;;;;;24.65;17.73;;;17.10;99.90;;;;;;5054779;28;20020;-90
2022/10/18 12:41:33;;;;;;;22.25;17.70;;;17.10;99.90;;;;;;5085644;28;20029;-90
2022/10/18 12:44:06;;;;;;;24.50;19.75;;;17.10;99.90;;;;;;5058556;28;20119;-89
2022/10/18 12:46:54;;;;;;;23.55;18.23;;;17.00;99.90;;;;;;5103718;27;20040;-89
2022/10/18 12:49:39;;;;;;;32.25;19.05;;;17.00;99.90;;;;;;5081291;28;20056;-90
2022/10/18 12:55:53;;;;;;;22.65;19.00;;;16.80;99.90;;;;;;5070254;28;20086;-88
2022/10/18 12:58:23;;;;;;;28.10;19.48;;;16.80;99.90;;;;;;5076872;28;20031;-89
2022/10/18 13:01:17;;;;;;;28.95;20.75;;;16.70;99.90;;;;;;5065260;28;20028;-89
2022/10/18 13:03:55;;;;;;;30.70;20.15;;;16.50;99.90;;;;;;5072518;28;20025;-88
2022/10/18 13:06:22;;;;;;;27.70;19.63;;;16.50;99.90;;;;;;5079226;28;20033;-89
2022/10/18 13:09:09;;;;;;;25.20;18.77;;;16.50;99.90;;;;;;5091406;28;20086;-90
2022/10/18 13:11:35;;;;;;;27.48;17.35;;;16.50;99.90;;;;;;5061518;28;20116;-88
2022/10/18 13:14:19;;;;;;;25.90;20.05;;;16.60;99.90;;;;;;5080656;28;20028;-89
2022/10/18 13:17:03;;;;;;;20.55;14.80;;;16.60;99.90;;;;;;5077169;28;20162;-89
2022/10/18 13:19:46;;;;;;;14.55;11.48;;;16.60;99.90;;;;;;5099106;28;20028;-89
2022/10/18 13:22:32;;;;;;;15.98;12.00;;;16.70;99.90;;;;;;5059270;28;20422;-88
2022/10/18 13:25:02;;;;;;;15.88;11.98;;;16.70;99.90;;;;;;5062083;28;20039;-89
2022/10/18 13:27:57;;;;;;;15.55;11.95;;;16.60;99.90;;;;;;5077565;28;20586;-89
2022/10/18 13:30:29;;;;;;;16.02;12.40;;;16.50;99.90;;;;;;5053174;28;20032;-89
2022/10/18 13:33:42;;;;;;;13.85;10.85;;;16.50;99.90;;;;;;5098953;28;20398;-88
2022/10/18 13:36:17;;;;;;;16.90;12.68;;;16.40;99.90;;;;;;5063384;28;20032;-88
2022/10/18 13:39:04;;;;;;;20.40;13.43;;;16.30;99.90;;;;;;5082089;28;20039;-89
2022/10/18 13:41:51;;;;;;;25.55;15.35;;;16.30;99.90;;;;;;5059612;28;20081;-89
2022/10/18 13:44:36;;;;;;;19.67;14.13;;;16.30;99.90;;;;;;5077677;28;20624;-89
2022/10/18 13:47:02;;;;;;;20.13;14.32;;;16.20;99.90;;;;;;5066252;28;20028;-89
2022/10/18 13:49:51;;;;;;;22.73;14.93;;;16.10;99.90;;;;;;5079770;28;20044;-89
2022/10/18 13:52:45;;;;;;;24.63;15.13;;;16.10;99.90;;;;;;5054325;28;20028;-89
2022/10/18 13:55:32;;;;;;;27.25;15.50;;;16.10;99.90;;;;;;5058430;28;20036;-89
2022/10/18 13:58:10;;;;;;;22.70;15.05;;;16.20;99.90;;;;;;5054019;28;20033;-89
2022/10/18 14:01:01;;;;;;;18.80;13.80;;;16.20;99.90;;;;;;5100365;28;20024;-89
2022/10/18 14:03:33;;;;;;;;;;;16.40;99.90;;;;;;5062816;28;20032;-90
2022/10/18 14:06:15;;;;;;;18.80;14.40;;;16.60;99.90;;;;;;5058485;28;20245;-89
2022/10/18 14:08:59;;;;;;;19.77;14.15;;;16.70;99.90;;;;;;5058538;28;20079;-89
2022/10/18 14:12:07;;;;;;;21.77;14.48;;;16.90;99.90;;;;;;5067258;28;20113;-89
2022/10/18 14:14:41;;;;;;;19.67;12.93;;;17.20;99.90;;;;;;5067616;28;20131;-88
2022/10/18 14:17:22;;;;;;;18.27;13.00;;;17.40;99.90;;;;;;5058498;28;20488;-88
2022/10/18 14:20:01;;;;;;;13.97;11.80;;;17.60;99.90;;;;;;5104715;28;20024;-88
2022/10/18 14:22:55;;;;;;;24.17;13.43;;;17.70;99.90;;;;;;5056926;28;20279;-89
2022/10/18 14:25:35;;;;;;;15.35;11.77;;;17.70;99.90;;;;;;5062158;28;20051;-89